Aérodrome :







RETROUVEZ-NOUS SUR...

 
LOGIN :

S'inscrire | Disclaimer

   EN    FR    IT 

 









Légende :    VFR   VFR Marginal   IFR   IFR Intensif   IFR Très Intensif
Visi : 
Plafond : 
>= 8 km
>= 3000ft
5 à 8 km
1000 à 3000 ft
1500m à 5 km
500 à 1000 ft
800 à 1500m
200 à 500 ft
< 800m
< 200 ft
Symboles :   Orages  Brouillard  Fortes neiges  Fortes précipitations  Vent > 20 kt






- Altitude de l'aérodrome : 199 ft
- Code IATA : YRQ


CYRQ - Trois-Rivières

DERNIER METAR :
  • 172200Z AUTO 23006KT 220V290 9SM CLR M17/M23 A3070 RMK SLP405

METARs EXPIRÉS :
  • 172100Z AUTO 23006KT 9SM CLR M16/M23 A3070 RMK SLP403
  • 172000Z AUTO 24007KT 9SM CLR M16/M24 A3068 RMK SLP397

TAF TAF CYRQ
Valide du 17 à 20h jusqu'au 18 à 08h UTC


171938Z 1720/1808 22008KT P6SM FEW030
BECMG 1722/1724 VRB03KT RMK FCST BASED ON AUTO OBS. NXT FCST BY 180200Z



MET'MAP, la Météo Aéronautique d'un coup d'oeil ! - Copyright ORBIFLY Décembre 2007 - Disclaimer

ORBIFLY MET'MAP TEAM :

Programmation & Développement : Alexandra Zaïnal
Sur une idée originale de : Baudouin d'Aumeries
Assistance à la programmation : Marc-Olivier Méhu
Soutien technique & logistique : Manuel Goepfert

Contact : metmap@orbifly.com




SOURCES & CREDITS :

   NOAA